sensor_id;sensor_type;location;lat;lon;timestamp;P1;durP1;ratioP1;P2;durP2;ratioP2
69783;SDS011;57054;51.978;4.498;2023-03-31T00:02:01;7.75;;;1.88;;
69783;SDS011;57054;51.978;4.498;2023-03-31T00:04:38;6.60;;;1.80;;
69783;SDS011;57054;51.978;4.498;2023-03-31T00:07:13;8.18;;;2.03;;
69783;SDS011;57054;51.978;4.498;2023-03-31T00:09:41;7.65;;;2.03;;
69783;SDS011;57054;51.978;4.498;2023-03-31T00:12:10;5.65;;;1.48;;
69783;SDS011;57054;51.978;4.498;2023-03-31T00:14:36;7.38;;;1.70;;
69783;SDS011;57054;51.978;4.498;2023-03-31T00:17:02;4.78;;;1.63;;
69783;SDS011;57054;51.978;4.498;2023-03-31T00:19:28;7.78;;;1.98;;
69783;SDS011;57054;51.978;4.498;2023-03-31T00:21:57;7.60;;;2.42;;
69783;SDS011;57054;51.978;4.498;2023-03-31T00:26:51;6.38;;;1.77;;
69783;SDS011;57054;51.978;4.498;2023-03-31T00:29:17;7.55;;;2.13;;
69783;SDS011;57054;51.978;4.498;2023-03-31T00:31:42;3.53;;;1.40;;
69783;SDS011;57054;51.978;4.498;2023-03-31T00:34:08;2.63;;;1.40;;
69783;SDS011;57054;51.978;4.498;2023-03-31T00:36:36;6.05;;;1.60;;
69783;SDS011;57054;51.978;4.498;2023-03-31T00:39:09;2.67;;;1.23;;
69783;SDS011;57054;51.978;4.498;2023-03-31T00:41:38;4.13;;;1.30;;
69783;SDS011;57054;51.978;4.498;2023-03-31T00:46:31;6.47;;;1.30;;
69783;SDS011;57054;51.978;4.498;2023-03-31T00:49:02;3.65;;;1.80;;
69783;SDS011;57054;51.978;4.498;2023-03-31T00:51:28;8.43;;;2.10;;
69783;SDS011;57054;51.978;4.498;2023-03-31T00:54:00;9.52;;;2.13;;
69783;SDS011;57054;51.978;4.498;2023-03-31T00:56:31;3.60;;;1.30;;
69783;SDS011;57054;51.978;4.498;2023-03-31T00:59:02;7.05;;;1.92;;
69783;SDS011;57054;51.978;4.498;2023-03-31T01:01:31;3.92;;;1.75;;
69783;SDS011;57054;51.978;4.498;2023-03-31T01:03:59;5.63;;;1.93;;
69783;SDS011;57054;51.978;4.498;2023-03-31T01:06:26;6.18;;;1.70;;
69783;SDS011;57054;51.978;4.498;2023-03-31T01:08:55;9.05;;;2.95;;
69783;SDS011;57054;51.978;4.498;2023-03-31T01:11:22;10.52;;;2.00;;
69783;SDS011;57054;51.978;4.498;2023-03-31T01:13:51;9.18;;;2.17;;
69783;SDS011;57054;51.978;4.498;2023-03-31T01:16:20;10.07;;;2.92;;
69783;SDS011;57054;51.978;4.498;2023-03-31T01:18:47;11.90;;;2.60;;
69783;SDS011;57054;51.978;4.498;2023-03-31T01:21:21;6.65;;;2.83;;
69783;SDS011;57054;51.978;4.498;2023-03-31T01:48:30;7.60;;;2.08;;
69783;SDS011;57054;51.978;4.498;2023-03-31T01:51:08;4.80;;;1.70;;
69783;SDS011;57054;51.978;4.498;2023-03-31T01:59:01;8.60;;;2.15;;
69783;SDS011;57054;51.978;4.498;2023-03-31T02:01:34;9.85;;;2.17;;
69783;SDS011;57054;51.978;4.498;2023-03-31T02:04:11;7.25;;;1.70;;
69783;SDS011;57054;51.978;4.498;2023-03-31T02:06:42;4.05;;;1.98;;
69783;SDS011;57054;51.978;4.498;2023-03-31T02:09:19;4.05;;;1.83;;
69783;SDS011;57054;51.978;4.498;2023-03-31T02:11:48;5.55;;;2.10;;
69783;SDS011;57054;51.978;4.498;2023-03-31T02:14:18;6.90;;;2.47;;
69783;SDS011;57054;51.978;4.498;2023-03-31T02:16:48;7.70;;;2.08;;
69783;SDS011;57054;51.978;4.498;2023-03-31T02:19:22;4.47;;;1.75;;
69783;SDS011;57054;51.978;4.498;2023-03-31T02:21:51;7.18;;;1.95;;
69783;SDS011;57054;51.978;4.498;2023-03-31T02:24:19;10.93;;;2.17;;
69783;SDS011;57054;51.978;4.498;2023-03-31T02:29:52;8.35;;;1.90;;
69783;SDS011;57054;51.978;4.498;2023-03-31T02:32:22;4.60;;;1.55;;
69783;SDS011;57054;51.978;4.498;2023-03-31T02:34:53;4.88;;;1.77;;
69783;SDS011;57054;51.978;4.498;2023-03-31T02:37:20;5.80;;;1.80;;
69783;SDS011;57054;51.978;4.498;2023-03-31T02:39:46;5.47;;;1.80;;
69783;SDS011;57054;51.978;4.498;2023-03-31T02:42:15;1.48;;;1.38;;
69783;SDS011;57054;51.978;4.498;2023-03-31T02:44:41;3.60;;;1.90;;
69783;SDS011;57054;51.978;4.498;2023-03-31T02:47:07;7.70;;;2.47;;
69783;SDS011;57054;51.978;4.498;2023-03-31T02:49:36;4.35;;;2.08;;
69783;SDS011;57054;51.978;4.498;2023-03-31T02:55:10;5.68;;;1.92;;
69783;SDS011;57054;51.978;4.498;2023-03-31T02:58:35;4.10;;;1.30;;
69783;SDS011;57054;51.978;4.498;2023-03-31T03:01:11;4.00;;;1.63;;
69783;SDS011;57054;51.978;4.498;2023-03-31T03:04:10;5.32;;;1.88;;
69783;SDS011;57054;51.978;4.498;2023-03-31T03:12:21;1.40;;;0.90;;
69783;SDS011;57054;51.978;4.498;2023-03-31T03:15:20;5.53;;;1.40;;
69783;SDS011;57054;51.978;4.498;2023-03-31T03:17:50;2.15;;;0.98;;
69783;SDS011;57054;51.978;4.498;2023-03-31T03:20:19;2.78;;;0.95;;
69783;SDS011;57054;51.978;4.498;2023-03-31T03:22:47;2.38;;;0.98;;
69783;SDS011;57054;51.978;4.498;2023-03-31T03:25:13;2.67;;;1.05;;
69783;SDS011;57054;51.978;4.498;2023-03-31T03:27:41;1.80;;;0.75;;
69783;SDS011;57054;51.978;4.498;2023-03-31T03:30:08;1.92;;;0.70;;
69783;SDS011;57054;51.978;4.498;2023-03-31T03:32:36;1.65;;;0.57;;
69783;SDS011;57054;51.978;4.498;2023-03-31T03:35:03;2.30;;;0.80;;
69783;SDS011;57054;51.978;4.498;2023-03-31T03:37:30;1.70;;;0.77;;
69783;SDS011;57054;51.978;4.498;2023-03-31T03:39:56;3.28;;;1.15;;
69783;SDS011;57054;51.978;4.498;2023-03-31T03:42:29;2.42;;;0.95;;
69783;SDS011;57054;51.978;4.498;2023-03-31T03:44:55;3.35;;;1.10;;
69783;SDS011;57054;51.978;4.498;2023-03-31T03:47:26;3.30;;;1.17;;
69783;SDS011;57054;51.978;4.498;2023-03-31T03:49:52;4.80;;;1.40;;
69783;SDS011;57054;51.978;4.498;2023-03-31T03:52:17;3.25;;;1.10;;
69783;SDS011;57054;51.978;4.498;2023-03-31T03:54:43;3.83;;;1.20;;
69783;SDS011;57054;51.978;4.498;2023-03-31T03:57:08;2.90;;;1.10;;
69783;SDS011;57054;51.978;4.498;2023-03-31T03:59:34;4.00;;;1.50;;
69783;SDS011;57054;51.978;4.498;2023-03-31T04:02:04;4.15;;;1.30;;
69783;SDS011;57054;51.978;4.498;2023-03-31T04:04:31;5.13;;;1.92;;
69783;SDS011;57054;51.978;4.498;2023-03-31T04:07:00;3.97;;;1.45;;
69783;SDS011;57054;51.978;4.498;2023-03-31T04:09:30;4.47;;;1.67;;
69783;SDS011;57054;51.978;4.498;2023-03-31T04:11:57;5.07;;;1.45;;
69783;SDS011;57054;51.978;4.498;2023-03-31T04:14:22;5.38;;;1.77;;
69783;SDS011;57054;51.978;4.498;2023-03-31T04:16:50;3.58;;;1.70;;
69783;SDS011;57054;51.978;4.498;2023-03-31T04:19:20;2.42;;;1.50;;
69783;SDS011;57054;51.978;4.498;2023-03-31T04:21:50;4.22;;;1.80;;
69783;SDS011;57054;51.978;4.498;2023-03-31T04:24:22;8.95;;;2.58;;
69783;SDS011;57054;51.978;4.498;2023-03-31T04:26:56;8.20;;;2.08;;
69783;SDS011;57054;51.978;4.498;2023-03-31T04:29:24;4.13;;;1.43;;
69783;SDS011;57054;51.978;4.498;2023-03-31T04:31:54;4.32;;;1.52;;
69783;SDS011;57054;51.978;4.498;2023-03-31T04:34:23;4.05;;;1.40;;
69783;SDS011;57054;51.978;4.498;2023-03-31T04:36:50;4.00;;;1.60;;
69783;SDS011;57054;51.978;4.498;2023-03-31T04:39:20;2.00;;;1.50;;
69783;SDS011;57054;51.978;4.498;2023-03-31T04:41:54;4.53;;;1.77;;
69783;SDS011;57054;51.978;4.498;2023-03-31T04:44:21;5.13;;;2.38;;
69783;SDS011;57054;51.978;4.498;2023-03-31T04:46:46;4.95;;;2.00;;
69783;SDS011;57054;51.978;4.498;2023-03-31T04:49:12;5.07;;;2.00;;
69783;SDS011;57054;51.978;4.498;2023-03-31T04:51:37;2.72;;;1.48;;
69783;SDS011;57054;51.978;4.498;2023-03-31T04:54:03;6.07;;;2.28;;
69783;SDS011;57054;51.978;4.498;2023-03-31T04:56:30;5.63;;;1.58;;
69783;SDS011;57054;51.978;4.498;2023-03-31T04:59:05;5.00;;;1.70;;
69783;SDS011;57054;51.978;4.498;2023-03-31T05:01:45;2.78;;;1.50;;
69783;SDS011;57054;51.978;4.498;2023-03-31T05:04:10;4.90;;;1.60;;
69783;SDS011;57054;51.978;4.498;2023-03-31T05:09:05;2.35;;;1.60;;
69783;SDS011;57054;51.978;4.498;2023-03-31T05:11:39;2.15;;;1.27;;
69783;SDS011;57054;51.978;4.498;2023-03-31T05:14:05;4.28;;;1.40;;
69783;SDS011;57054;51.978;4.498;2023-03-31T05:16:32;1.65;;;1.00;;
69783;SDS011;57054;51.978;4.498;2023-03-31T05:18:58;1.30;;;1.00;;
69783;SDS011;57054;51.978;4.498;2023-03-31T05:21:27;2.45;;;1.35;;
69783;SDS011;57054;51.978;4.498;2023-03-31T05:23:54;4.38;;;1.33;;
69783;SDS011;57054;51.978;4.498;2023-03-31T05:26:21;5.20;;;1.58;;
69783;SDS011;57054;51.978;4.498;2023-03-31T05:28:49;1.88;;;0.85;;
69783;SDS011;57054;51.978;4.498;2023-03-31T05:33:46;2.55;;;1.23;;
69783;SDS011;57054;51.978;4.498;2023-03-31T05:36:15;2.38;;;1.20;;
69783;SDS011;57054;51.978;4.498;2023-03-31T05:38:44;3.15;;;1.17;;
69783;SDS011;57054;51.978;4.498;2023-03-31T05:41:16;2.65;;;1.30;;
69783;SDS011;57054;51.978;4.498;2023-03-31T05:43:41;2.33;;;1.00;;
69783;SDS011;57054;51.978;4.498;2023-03-31T05:46:09;3.72;;;1.10;;
69783;SDS011;57054;51.978;4.498;2023-03-31T05:48:35;4.10;;;1.13;;
69783;SDS011;57054;51.978;4.498;2023-03-31T05:51:02;1.35;;;1.00;;
69783;SDS011;57054;51.978;4.498;2023-03-31T05:53:28;3.42;;;1.00;;
69783;SDS011;57054;51.978;4.498;2023-03-31T05:56:01;1.52;;;1.00;;
69783;SDS011;57054;51.978;4.498;2023-03-31T05:58:29;1.45;;;0.90;;
69783;SDS011;57054;51.978;4.498;2023-03-31T06:01:04;1.52;;;0.80;;
69783;SDS011;57054;51.978;4.498;2023-03-31T06:03:35;1.23;;;0.77;;
69783;SDS011;57054;51.978;4.498;2023-03-31T06:06:02;1.63;;;0.77;;
69783;SDS011;57054;51.978;4.498;2023-03-31T06:08:35;5.15;;;1.08;;
69783;SDS011;57054;51.978;4.498;2023-03-31T06:11:08;2.45;;;0.77;;
69783;SDS011;57054;51.978;4.498;2023-03-31T06:13:36;1.50;;;0.70;;
69783;SDS011;57054;51.978;4.498;2023-03-31T06:16:04;4.10;;;0.93;;
69783;SDS011;57054;51.978;4.498;2023-03-31T06:18:33;1.30;;;0.80;;
69783;SDS011;57054;51.978;4.498;2023-03-31T06:21:20;1.20;;;0.70;;
69783;SDS011;57054;51.978;4.498;2023-03-31T06:23:59;1.92;;;0.90;;
69783;SDS011;57054;51.978;4.498;2023-03-31T06:26:28;2.05;;;0.80;;
69783;SDS011;57054;51.978;4.498;2023-03-31T06:28:55;3.20;;;0.68;;
69783;SDS011;57054;51.978;4.498;2023-03-31T06:31:21;1.80;;;0.90;;
69783;SDS011;57054;51.978;4.498;2023-03-31T06:33:51;2.37;;;0.93;;
69783;SDS011;57054;51.978;4.498;2023-03-31T06:36:18;1.25;;;0.90;;
69783;SDS011;57054;51.978;4.498;2023-03-31T06:38:51;2.10;;;0.80;;
69783;SDS011;57054;51.978;4.498;2023-03-31T06:41:18;2.13;;;1.10;;
69783;SDS011;57054;51.978;4.498;2023-03-31T06:43:48;7.13;;;1.17;;
69783;SDS011;57054;51.978;4.498;2023-03-31T06:46:14;2.63;;;0.80;;
69783;SDS011;57054;51.978;4.498;2023-03-31T06:48:43;3.40;;;0.88;;
69783;SDS011;57054;51.978;4.498;2023-03-31T06:51:08;1.48;;;1.10;;
69783;SDS011;57054;51.978;4.498;2023-03-31T06:53:37;3.13;;;1.38;;
69783;SDS011;57054;51.978;4.498;2023-03-31T06:58:31;1.98;;;0.95;;
69783;SDS011;57054;51.978;4.498;2023-03-31T07:01:00;3.08;;;1.20;;
69783;SDS011;57054;51.978;4.498;2023-03-31T07:03:30;2.33;;;1.35;;
69783;SDS011;57054;51.978;4.498;2023-03-31T07:05:58;7.82;;;1.88;;
69783;SDS011;57054;51.978;4.498;2023-03-31T07:08:26;1.48;;;1.25;;
69783;SDS011;57054;51.978;4.498;2023-03-31T07:10:55;3.17;;;1.40;;
69783;SDS011;57054;51.978;4.498;2023-03-31T07:13:25;3.05;;;1.65;;
69783;SDS011;57054;51.978;4.498;2023-03-31T07:15:53;5.82;;;2.05;;
69783;SDS011;57054;51.978;4.498;2023-03-31T07:18:19;7.82;;;2.50;;
69783;SDS011;57054;51.978;4.498;2023-03-31T07:20:51;7.20;;;2.33;;
69783;SDS011;57054;51.978;4.498;2023-03-31T07:23:16;6.78;;;2.55;;
69783;SDS011;57054;51.978;4.498;2023-03-31T07:25:47;6.15;;;2.40;;
69783;SDS011;57054;51.978;4.498;2023-03-31T07:31:16;6.35;;;2.65;;
69783;SDS011;57054;51.978;4.498;2023-03-31T07:33:41;5.88;;;2.10;;
69783;SDS011;57054;51.978;4.498;2023-03-31T07:36:08;6.65;;;2.60;;
69783;SDS011;57054;51.978;4.498;2023-03-31T07:38:35;7.78;;;3.13;;
69783;SDS011;57054;51.978;4.498;2023-03-31T07:41:15;10.95;;;2.95;;
69783;SDS011;57054;51.978;4.498;2023-03-31T07:43:44;5.28;;;2.60;;
69783;SDS011;57054;51.978;4.498;2023-03-31T07:46:21;5.47;;;2.85;;
69783;SDS011;57054;51.978;4.498;2023-03-31T07:48:49;8.85;;;2.22;;
69783;SDS011;57054;51.978;4.498;2023-03-31T07:51:17;14.82;;;3.10;;
69783;SDS011;57054;51.978;4.498;2023-03-31T07:53:45;9.65;;;2.60;;
69783;SDS011;57054;51.978;4.498;2023-03-31T07:56:22;6.50;;;2.83;;
69783;SDS011;57054;51.978;4.498;2023-03-31T07:58:51;7.97;;;2.63;;
69783;SDS011;57054;51.978;4.498;2023-03-31T08:01:24;11.45;;;2.75;;
69783;SDS011;57054;51.978;4.498;2023-03-31T08:03:55;9.55;;;2.03;;
69783;SDS011;57054;51.978;4.498;2023-03-31T08:06:23;6.57;;;2.22;;
69783;SDS011;57054;51.978;4.498;2023-03-31T08:08:53;13.68;;;2.60;;
69783;SDS011;57054;51.978;4.498;2023-03-31T08:11:21;9.63;;;2.38;;
69783;SDS011;57054;51.978;4.498;2023-03-31T08:13:48;7.80;;;2.30;;
69783;SDS011;57054;51.978;4.498;2023-03-31T08:16:14;15.88;;;2.88;;
69783;SDS011;57054;51.978;4.498;2023-03-31T08:18:45;11.35;;;3.35;;
69783;SDS011;57054;51.978;4.498;2023-03-31T08:21:14;8.60;;;2.70;;
69783;SDS011;57054;51.978;4.498;2023-03-31T08:23:46;13.20;;;3.05;;
69783;SDS011;57054;51.978;4.498;2023-03-31T08:26:16;7.60;;;2.80;;
69783;SDS011;57054;51.978;4.498;2023-03-31T08:28:46;8.32;;;2.67;;
69783;SDS011;57054;51.978;4.498;2023-03-31T08:31:14;13.68;;;2.95;;
69783;SDS011;57054;51.978;4.498;2023-03-31T08:33:44;9.82;;;2.92;;
69783;SDS011;57054;51.978;4.498;2023-03-31T08:36:11;13.35;;;2.95;;
69783;SDS011;57054;51.978;4.498;2023-03-31T08:38:38;17.33;;;3.72;;
69783;SDS011;57054;51.978;4.498;2023-03-31T08:43:51;15.30;;;3.10;;
69783;SDS011;57054;51.978;4.498;2023-03-31T08:46:24;15.48;;;3.75;;
69783;SDS011;57054;51.978;4.498;2023-03-31T08:48:55;12.38;;;2.65;;
69783;SDS011;57054;51.978;4.498;2023-03-31T08:54:02;24.85;;;3.67;;
69783;SDS011;57054;51.978;4.498;2023-03-31T08:56:35;21.08;;;3.65;;
69783;SDS011;57054;51.978;4.498;2023-03-31T08:59:04;11.57;;;2.78;;
69783;SDS011;57054;51.978;4.498;2023-03-31T09:01:45;16.77;;;3.10;;
69783;SDS011;57054;51.978;4.498;2023-03-31T09:07:02;14.93;;;4.57;;
69783;SDS011;57054;51.978;4.498;2023-03-31T09:14:59;13.45;;;3.45;;
69783;SDS011;57054;51.978;4.498;2023-03-31T09:17:44;14.13;;;4.05;;
69783;SDS011;57054;51.978;4.498;2023-03-31T09:20:17;15.32;;;2.70;;
69783;SDS011;57054;51.978;4.498;2023-03-31T09:22:49;17.05;;;2.78;;
69783;SDS011;57054;51.978;4.498;2023-03-31T09:25:33;23.95;;;3.40;;
69783;SDS011;57054;51.978;4.498;2023-03-31T09:28:03;15.55;;;3.42;;
69783;SDS011;57054;51.978;4.498;2023-03-31T09:30:38;16.05;;;3.03;;
69783;SDS011;57054;51.978;4.498;2023-03-31T09:33:28;18.13;;;3.73;;
69783;SDS011;57054;51.978;4.498;2023-03-31T09:36:01;14.15;;;3.35;;
69783;SDS011;57054;51.978;4.498;2023-03-31T09:38:37;15.80;;;3.50;;
69783;SDS011;57054;51.978;4.498;2023-03-31T09:41:11;21.42;;;3.55;;
69783;SDS011;57054;51.978;4.498;2023-03-31T09:43:58;16.02;;;4.43;;
69783;SDS011;57054;51.978;4.498;2023-03-31T09:46:30;16.80;;;2.70;;
69783;SDS011;57054;51.978;4.498;2023-03-31T09:49:12;15.55;;;2.92;;
69783;SDS011;57054;51.978;4.498;2023-03-31T09:51:41;14.90;;;3.20;;
69783;SDS011;57054;51.978;4.498;2023-03-31T09:54:14;15.55;;;3.30;;
69783;SDS011;57054;51.978;4.498;2023-03-31T09:59:31;19.15;;;2.55;;
69783;SDS011;57054;51.978;4.498;2023-03-31T10:02:04;13.70;;;3.20;;
69783;SDS011;57054;51.978;4.498;2023-03-31T10:04:48;23.17;;;3.72;;
69783;SDS011;57054;51.978;4.498;2023-03-31T10:07:19;14.60;;;3.08;;
69783;SDS011;57054;51.978;4.498;2023-03-31T10:09:56;15.70;;;2.92;;
69783;SDS011;57054;51.978;4.498;2023-03-31T10:12:34;22.70;;;3.05;;
69783;SDS011;57054;51.978;4.498;2023-03-31T10:15:14;14.07;;;2.30;;
69783;SDS011;57054;51.978;4.498;2023-03-31T10:17:45;12.65;;;2.63;;
69783;SDS011;57054;51.978;4.498;2023-03-31T10:20:36;13.27;;;2.80;;
69783;SDS011;57054;51.978;4.498;2023-03-31T10:23:05;10.27;;;2.75;;
69783;SDS011;57054;51.978;4.498;2023-03-31T10:25:44;13.35;;;2.45;;
69783;SDS011;57054;51.978;4.498;2023-03-31T10:28:11;11.27;;;2.05;;
69783;SDS011;57054;51.978;4.498;2023-03-31T10:30:41;11.55;;;2.10;;
69783;SDS011;57054;51.978;4.498;2023-03-31T10:33:21;11.63;;;2.47;;
69783;SDS011;57054;51.978;4.498;2023-03-31T10:35:54;10.65;;;2.53;;
69783;SDS011;57054;51.978;4.498;2023-03-31T10:38:33;14.30;;;4.35;;
69783;SDS011;57054;51.978;4.498;2023-03-31T10:41:04;11.88;;;2.50;;
69783;SDS011;57054;51.978;4.498;2023-03-31T10:46:15;16.23;;;2.25;;
69783;SDS011;57054;51.978;4.498;2023-03-31T10:48:44;12.55;;;2.80;;
69783;SDS011;57054;51.978;4.498;2023-03-31T10:53:45;10.18;;;2.25;;
69783;SDS011;57054;51.978;4.498;2023-03-31T11:04:44;10.88;;;2.50;;
69783;SDS011;57054;51.978;4.498;2023-03-31T11:07:23;12.70;;;2.40;;
69783;SDS011;57054;51.978;4.498;2023-03-31T11:21:41;10.90;;;2.90;;
69783;SDS011;57054;51.978;4.498;2023-03-31T11:24:33;11.60;;;2.33;;
69783;SDS011;57054;51.978;4.498;2023-03-31T11:29:46;8.15;;;2.05;;
69783;SDS011;57054;51.978;4.498;2023-03-31T11:46:33;3.85;;;1.10;;
69783;SDS011;57054;51.978;4.498;2023-03-31T11:48:57;5.43;;;1.60;;
69783;SDS011;57054;51.978;4.498;2023-03-31T11:51:52;9.57;;;1.60;;
69783;SDS011;57054;51.978;4.498;2023-03-31T12:00:00;7.88;;;1.65;;
69783;SDS011;57054;51.978;4.498;2023-03-31T12:05:19;7.50;;;1.60;;
69783;SDS011;57054;51.978;4.498;2023-03-31T12:07:51;9.50;;;1.95;;
69783;SDS011;57054;51.978;4.498;2023-03-31T12:10:38;9.95;;;1.55;;
69783;SDS011;57054;51.978;4.498;2023-03-31T12:18:46;4.75;;;1.63;;
69783;SDS011;57054;51.978;4.498;2023-03-31T12:21:33;5.57;;;1.63;;
69783;SDS011;57054;51.978;4.498;2023-03-31T12:24:09;10.43;;;2.40;;
69783;SDS011;57054;51.978;4.498;2023-03-31T12:30:09;8.30;;;1.97;;
69783;SDS011;57054;51.978;4.498;2023-03-31T12:33:12;6.45;;;1.83;;
69783;SDS011;57054;51.978;4.498;2023-03-31T12:36:39;11.15;;;2.55;;
69783;SDS011;57054;51.978;4.498;2023-03-31T12:45:42;12.13;;;2.22;;
69783;SDS011;57054;51.978;4.498;2023-03-31T12:48:28;10.32;;;2.60;;
69783;SDS011;57054;51.978;4.498;2023-03-31T12:51:09;14.40;;;2.47;;
69783;SDS011;57054;51.978;4.498;2023-03-31T12:56:29;4.75;;;1.60;;
69783;SDS011;57054;51.978;4.498;2023-03-31T12:59:34;5.40;;;1.65;;
69783;SDS011;57054;51.978;4.498;2023-03-31T13:04:38;5.10;;;1.58;;
69783;SDS011;57054;51.978;4.498;2023-03-31T13:07:07;11.07;;;1.70;;
69783;SDS011;57054;51.978;4.498;2023-03-31T13:09:44;5.15;;;1.35;;
69783;SDS011;57054;51.978;4.498;2023-03-31T13:12:24;9.70;;;2.05;;
69783;SDS011;57054;51.978;4.498;2023-03-31T13:14:57;7.63;;;1.80;;
69783;SDS011;57054;51.978;4.498;2023-03-31T13:17:26;4.00;;;1.45;;
69783;SDS011;57054;51.978;4.498;2023-03-31T13:20:16;4.25;;;1.30;;
69783;SDS011;57054;51.978;4.498;2023-03-31T13:22:58;4.10;;;1.23;;
69783;SDS011;57054;51.978;4.498;2023-03-31T13:27:55;3.67;;;1.30;;
69783;SDS011;57054;51.978;4.498;2023-03-31T13:30:59;6.68;;;1.80;;
69783;SDS011;57054;51.978;4.498;2023-03-31T13:33:27;7.43;;;1.67;;
69783;SDS011;57054;51.978;4.498;2023-03-31T13:36:02;5.53;;;1.77;;
69783;SDS011;57054;51.978;4.498;2023-03-31T13:44:13;6.18;;;1.50;;
69783;SDS011;57054;51.978;4.498;2023-03-31T14:00:51;6.35;;;1.33;;
69783;SDS011;57054;51.978;4.498;2023-03-31T14:09:20;3.58;;;1.52;;
69783;SDS011;57054;51.978;4.498;2023-03-31T14:11:51;6.55;;;1.35;;
69783;SDS011;57054;51.978;4.498;2023-03-31T14:14:16;4.15;;;1.75;;
69783;SDS011;57054;51.978;4.498;2023-03-31T14:16:43;6.07;;;1.50;;
69783;SDS011;57054;51.978;4.498;2023-03-31T14:22:31;6.88;;;1.13;;
69783;SDS011;57054;51.978;4.498;2023-03-31T14:25:13;3.13;;;1.10;;
69783;SDS011;57054;51.978;4.498;2023-03-31T14:27:51;2.58;;;1.25;;
69783;SDS011;57054;51.978;4.498;2023-03-31T14:30:26;3.63;;;1.30;;
69783;SDS011;57054;51.978;4.498;2023-03-31T14:36:26;2.90;;;0.93;;
69783;SDS011;57054;51.978;4.498;2023-03-31T14:39:02;4.55;;;1.58;;
69783;SDS011;57054;51.978;4.498;2023-03-31T14:41:36;1.77;;;1.05;;
69783;SDS011;57054;51.978;4.498;2023-03-31T14:44:13;3.70;;;0.98;;
69783;SDS011;57054;51.978;4.498;2023-03-31T14:46:44;3.17;;;1.35;;
69783;SDS011;57054;51.978;4.498;2023-03-31T14:49:19;5.72;;;1.17;;
69783;SDS011;57054;51.978;4.498;2023-03-31T14:51:52;3.40;;;1.10;;
69783;SDS011;57054;51.978;4.498;2023-03-31T14:54:20;3.80;;;1.40;;
69783;SDS011;57054;51.978;4.498;2023-03-31T14:56:47;2.88;;;1.38;;
69783;SDS011;57054;51.978;4.498;2023-03-31T14:59:18;4.72;;;1.20;;
69783;SDS011;57054;51.978;4.498;2023-03-31T15:01:53;4.68;;;1.45;;
69783;SDS011;57054;51.978;4.498;2023-03-31T15:04:22;6.45;;;1.65;;
69783;SDS011;57054;51.978;4.498;2023-03-31T15:06:52;4.07;;;1.27;;
69783;SDS011;57054;51.978;4.498;2023-03-31T15:09:23;1.95;;;1.15;;
69783;SDS011;57054;51.978;4.498;2023-03-31T15:11:53;3.15;;;1.23;;
69783;SDS011;57054;51.978;4.498;2023-03-31T15:14:22;3.53;;;1.08;;
69783;SDS011;57054;51.978;4.498;2023-03-31T15:16:53;3.42;;;1.17;;
69783;SDS011;57054;51.978;4.498;2023-03-31T15:19:28;4.47;;;1.38;;
69783;SDS011;57054;51.978;4.498;2023-03-31T15:22:00;4.93;;;1.60;;
69783;SDS011;57054;51.978;4.498;2023-03-31T15:24:45;5.63;;;1.30;;
69783;SDS011;57054;51.978;4.498;2023-03-31T15:30:02;4.30;;;1.50;;
69783;SDS011;57054;51.978;4.498;2023-03-31T15:32:45;8.38;;;1.92;;
69783;SDS011;57054;51.978;4.498;2023-03-31T15:35:21;5.20;;;1.58;;
69783;SDS011;57054;51.978;4.498;2023-03-31T15:37:53;4.63;;;1.55;;
69783;SDS011;57054;51.978;4.498;2023-03-31T15:40:26;2.50;;;1.27;;
69783;SDS011;57054;51.978;4.498;2023-03-31T15:42:58;2.38;;;1.40;;
69783;SDS011;57054;51.978;4.498;2023-03-31T15:45:35;3.92;;;1.33;;
69783;SDS011;57054;51.978;4.498;2023-03-31T15:48:13;4.35;;;1.15;;
69783;SDS011;57054;51.978;4.498;2023-03-31T15:50:43;7.25;;;1.30;;
69783;SDS011;57054;51.978;4.498;2023-03-31T15:53:26;1.63;;;1.25;;
69783;SDS011;57054;51.978;4.498;2023-03-31T15:55:53;2.78;;;1.00;;
69783;SDS011;57054;51.978;4.498;2023-03-31T15:58:22;1.75;;;1.08;;
69783;SDS011;57054;51.978;4.498;2023-03-31T16:01:08;5.25;;;1.75;;
69783;SDS011;57054;51.978;4.498;2023-03-31T16:03:35;2.25;;;1.40;;
69783;SDS011;57054;51.978;4.498;2023-03-31T16:08:51;2.63;;;1.13;;
69783;SDS011;57054;51.978;4.498;2023-03-31T16:11:41;4.22;;;1.10;;
69783;SDS011;57054;51.978;4.498;2023-03-31T16:14:18;3.25;;;1.20;;
69783;SDS011;57054;51.978;4.498;2023-03-31T16:16:51;2.58;;;1.35;;
69783;SDS011;57054;51.978;4.498;2023-03-31T16:19:25;3.15;;;1.27;;
69783;SDS011;57054;51.978;4.498;2023-03-31T16:21:56;2.63;;;1.38;;
69783;SDS011;57054;51.978;4.498;2023-03-31T16:24:27;2.55;;;1.17;;
69783;SDS011;57054;51.978;4.498;2023-03-31T16:27:01;3.42;;;1.23;;
69783;SDS011;57054;51.978;4.498;2023-03-31T16:29:33;3.15;;;1.00;;
69783;SDS011;57054;51.978;4.498;2023-03-31T16:32:11;3.45;;;1.13;;
69783;SDS011;57054;51.978;4.498;2023-03-31T16:35:01;2.92;;;1.20;;
69783;SDS011;57054;51.978;4.498;2023-03-31T16:37:26;2.05;;;1.00;;
69783;SDS011;57054;51.978;4.498;2023-03-31T16:39:52;2.60;;;1.05;;
69783;SDS011;57054;51.978;4.498;2023-03-31T16:42:18;2.65;;;1.45;;
69783;SDS011;57054;51.978;4.498;2023-03-31T16:44:44;2.72;;;1.25;;
69783;SDS011;57054;51.978;4.498;2023-03-31T16:47:13;1.70;;;1.35;;
69783;SDS011;57054;51.978;4.498;2023-03-31T16:52:05;3.08;;;1.20;;
69783;SDS011;57054;51.978;4.498;2023-03-31T16:54:30;3.25;;;1.42;;
69783;SDS011;57054;51.978;4.498;2023-03-31T16:56:56;1.52;;;1.08;;
69783;SDS011;57054;51.978;4.498;2023-03-31T16:59:23;1.58;;;1.00;;
69783;SDS011;57054;51.978;4.498;2023-03-31T17:01:50;1.85;;;1.13;;
69783;SDS011;57054;51.978;4.498;2023-03-31T17:04:16;4.28;;;1.65;;
69783;SDS011;57054;51.978;4.498;2023-03-31T17:06:42;2.83;;;1.48;;
69783;SDS011;57054;51.978;4.498;2023-03-31T17:09:08;5.10;;;2.13;;
69783;SDS011;57054;51.978;4.498;2023-03-31T17:11:34;6.18;;;1.60;;
69783;SDS011;57054;51.978;4.498;2023-03-31T17:14:00;9.15;;;2.13;;
69783;SDS011;57054;51.978;4.498;2023-03-31T17:16:26;6.72;;;1.85;;
69783;SDS011;57054;51.978;4.498;2023-03-31T17:18:52;5.85;;;2.05;;
69783;SDS011;57054;51.978;4.498;2023-03-31T17:21:18;8.55;;;2.20;;
69783;SDS011;57054;51.978;4.498;2023-03-31T17:23:44;6.72;;;2.30;;
69783;SDS011;57054;51.978;4.498;2023-03-31T17:26:10;3.75;;;1.63;;
69783;SDS011;57054;51.978;4.498;2023-03-31T17:28:37;7.38;;;1.98;;
69783;SDS011;57054;51.978;4.498;2023-03-31T17:31:10;6.00;;;1.73;;
69783;SDS011;57054;51.978;4.498;2023-03-31T17:33:37;10.55;;;2.30;;
69783;SDS011;57054;51.978;4.498;2023-03-31T17:36:02;15.00;;;3.35;;
69783;SDS011;57054;51.978;4.498;2023-03-31T17:38:29;9.80;;;1.88;;
69783;SDS011;57054;51.978;4.498;2023-03-31T17:40:55;10.40;;;2.10;;
69783;SDS011;57054;51.978;4.498;2023-03-31T17:43:26;7.65;;;1.88;;
69783;SDS011;57054;51.978;4.498;2023-03-31T17:45:58;8.07;;;1.95;;
69783;SDS011;57054;51.978;4.498;2023-03-31T17:48:37;7.40;;;1.95;;
69783;SDS011;57054;51.978;4.498;2023-03-31T17:51:04;7.20;;;1.73;;
69783;SDS011;57054;51.978;4.498;2023-03-31T17:53:31;13.40;;;2.35;;
69783;SDS011;57054;51.978;4.498;2023-03-31T17:55:57;11.75;;;2.50;;
69783;SDS011;57054;51.978;4.498;2023-03-31T17:58:23;20.23;;;2.85;;
69783;SDS011;57054;51.978;4.498;2023-03-31T18:00:49;19.02;;;3.78;;
69783;SDS011;57054;51.978;4.498;2023-03-31T18:03:16;12.10;;;2.92;;
69783;SDS011;57054;51.978;4.498;2023-03-31T18:05:42;16.50;;;3.17;;
69783;SDS011;57054;51.978;4.498;2023-03-31T18:08:09;9.23;;;2.58;;
69783;SDS011;57054;51.978;4.498;2023-03-31T18:10:35;10.52;;;2.88;;
69783;SDS011;57054;51.978;4.498;2023-03-31T18:13:01;14.77;;;3.13;;
69783;SDS011;57054;51.978;4.498;2023-03-31T18:15:27;17.60;;;3.17;;
69783;SDS011;57054;51.978;4.498;2023-03-31T18:17:52;22.67;;;3.33;;
69783;SDS011;57054;51.978;4.498;2023-03-31T18:20:20;14.32;;;2.92;;